Terminal Aerodrome Forecast
Issued by NWS Upton, NY

Home | Current Version | Previous Version | Text Only | Print | Product List | Glossary On
Versions: 1 2 3 4 5 6 7 8 9 10 11 12 13 14 15 16 17 18 19 20 21 22 23 24 25 26 27 28 29 30 31
000
FTUS41 KOKX 190500
TAFJFK
TAF
KJFK 190520Z 1906/2012 24007KT P6SM FEW015 BKN250
     FM190900 28007KT P6SM SCT250
     FM191100 33010KT P6SM FEW070
     FM191500 33013G20KT P6SM SKC
     FM192100 35012KT P6SM SKC
     FM200200 02010KT P6SM SKC=

USA.gov is the U.S. government's official web portal to all federal, state and local government web resources and services.